Time;durP1;ratioP1;P1;durP2;ratioP2;P2;SDS_P1;SDS_P2;PMS_P1;PMS_P2;Temp;Humidity;BMP_temperature;BMP_pressure;BME280_temperature;BME280_humidity;BME280_pressure;Samples;Min_cycle;Max_cycle;Signal;HPM_P1;HPM_P2
2021/08/23 00:01:14;;;;;;;6.67;5.87;;;17.30;99.90;;;;;;5062412;28;20444;-73
2021/08/23 00:03:40;;;;;;;7.07;5.73;;;17.30;99.90;;;;;;5066605;28;20326;-73
2021/08/23 00:06:06;;;;;;;6.30;5.70;;;17.30;99.90;;;;;;5063497;28;21905;-73
2021/08/23 00:08:31;;;;;;;7.90;6.17;;;17.30;99.90;;;;;;5056750;28;20186;-74
2021/08/23 00:10:57;;;;;;;7.63;5.40;;;17.40;99.90;;;;;;5056243;28;20202;-73
2021/08/23 00:13:23;;;;;;;8.17;6.23;;;17.30;99.90;;;;;;5063971;28;20217;-74
2021/08/23 00:15:53;;;;;;;9.47;6.83;;;17.30;99.90;;;;;;5052247;28;20190;-73
2021/08/23 00:18:19;;;;;;;9.90;5.50;;;17.30;99.90;;;;;;5064716;28;20543;-73
2021/08/23 00:20:51;;;;;;;12.73;5.70;;;17.30;99.90;;;;;;5064204;28;20508;-73
2021/08/23 00:23:19;;;;;;;5.63;5.00;;;17.40;99.90;;;;;;5054640;28;20833;-73
2021/08/23 00:25:45;;;;;;;6.93;5.73;;;17.40;99.90;;;;;;5064830;28;20467;-73
2021/08/23 00:28:12;;;;;;;7.70;6.00;;;17.40;99.90;;;;;;5061877;28;20444;-73
2021/08/23 00:30:38;;;;;;;7.10;6.40;;;17.20;99.90;;;;;;5068007;28;20202;-73
2021/08/23 00:33:05;;;;;;;8.37;6.40;;;17.20;99.90;;;;;;5060172;28;20494;-72
2021/08/23 00:35:31;;;;;;;6.43;5.83;;;17.20;1.00;;;;;;5065768;28;20443;-72
2021/08/23 00:37:57;;;;;;;7.13;6.30;;;17.20;99.90;;;;;;5066697;28;20459;-72
2021/08/23 00:40:26;;;;;;;7.90;5.70;;;17.30;99.90;;;;;;5066334;28;20622;-73
2021/08/23 00:42:52;;;;;;;10.47;8.20;;;17.30;99.90;;;;;;5065372;28;20449;-72
2021/08/23 00:45:22;;;;;;;10.83;8.10;;;17.20;99.90;;;;;;5068812;28;21753;-72
2021/08/23 00:47:49;;;;;;;10.50;8.90;;;17.30;99.90;;;;;;5070626;28;20188;-72
2021/08/23 00:50:15;;;;;;;9.23;7.93;;;17.20;99.90;;;;;;5068688;28;20492;-72
2021/08/23 00:52:42;;;;;;;9.67;8.70;;;17.10;99.90;;;;;;5062809;28;20582;-73
2021/08/23 00:55:08;;;;;;;12.67;8.47;;;17.20;99.90;;;;;;5062997;28;20209;-73
2021/08/23 00:57:36;;;;;;;14.63;8.87;;;17.20;99.90;;;;;;5072312;28;20806;-73
2021/08/23 01:00:02;;;;;;;12.03;10.60;;;17.30;99.90;;;;;;5071382;28;20432;-72
2021/08/23 01:03:00;;;;;;;13.10;9.70;;;17.20;99.90;;;;;;5068556;28;20444;-73
2021/08/23 01:05:30;;;;;;;12.40;9.93;;;17.20;99.90;;;;;;5051069;28;20547;-73
2021/08/23 01:07:56;;;;;;;10.13;9.10;;;17.20;99.90;;;;;;5069849;28;20432;-73
2021/08/23 01:10:37;;;;;;;10.67;9.50;;;17.20;99.90;;;;;;5064496;28;20473;-72
2021/08/23 01:13:06;;;;;;;13.03;10.70;;;17.10;99.90;;;;;;5071252;28;20230;-72
2021/08/23 01:15:33;;;;;;;10.87;9.77;;;17.00;99.90;;;;;;5072833;28;20481;-72
2021/08/23 01:17:58;;;;;;;10.33;9.33;;;17.00;99.90;;;;;;5067500;28;20435;-72
2021/08/23 01:20:25;;;;;;;13.50;11.97;;;17.00;99.90;;;;;;5068623;28;20826;-72
2021/08/23 01:22:53;;;;;;;16.70;9.50;;;16.90;99.90;;;;;;5072588;28;20821;-72
2021/08/23 01:25:25;;;;;;;15.00;10.80;;;16.80;99.90;;;;;;5068325;28;20455;-73
2021/08/23 01:28:06;;;;;;;10.87;9.77;;;16.80;99.90;;;;;;5074008;28;20431;-72
2021/08/23 01:30:41;;;;;;;13.70;11.70;;;16.70;99.90;;;;;;5067641;28;20515;-73
2021/08/23 01:33:07;;;;;;;14.10;11.30;;;16.70;99.90;;;;;;5069841;28;20483;-72
2021/08/23 01:35:33;;;;;;;11.80;10.60;;;16.70;99.90;;;;;;5071149;28;20566;-73
2021/08/23 01:37:59;;;;;;;15.90;10.80;;;16.70;99.90;;;;;;5068026;28;20268;-72
2021/08/23 01:40:25;;;;;;;13.40;10.80;;;16.70;99.90;;;;;;5068553;28;20454;-72
2021/08/23 01:42:51;;;;;;;11.27;10.00;;;16.60;99.90;;;;;;5067524;28;20556;-73
2021/08/23 01:45:16;;;;;;;10.17;9.17;;;16.60;99.90;;;;;;5064246;28;20523;-73
2021/08/23 01:47:42;;;;;;;12.13;10.80;;;16.60;99.90;;;;;;5070012;28;20235;-73
2021/08/23 01:50:08;;;;;;;13.97;11.60;;;16.60;96.20;;;;;;5072942;28;20193;-72
2021/08/23 01:52:34;;;;;;;15.10;10.90;;;16.60;93.40;;;;;;5066882;28;20741;-73
2021/08/23 01:54:59;;;;;;;20.40;12.23;;;16.60;99.50;;;;;;5071806;28;20463;-72
2021/08/23 01:57:25;;;;;;;17.90;12.97;;;16.70;99.90;;;;;;5064669;28;20183;-73
2021/08/23 01:59:51;;;;;;;15.93;12.50;;;16.70;99.90;;;;;;5069059;28;20640;-73
2021/08/23 02:02:17;;;;;;;15.07;11.90;;;16.70;99.90;;;;;;5069904;28;20444;-73
2021/08/23 02:04:42;;;;;;;13.40;12.00;;;16.80;99.90;;;;;;5067309;28;20190;-73
2021/08/23 02:07:08;;;;;;;21.33;12.97;;;16.70;99.90;;;;;;5065939;28;20186;-73
2021/08/23 02:09:34;;;;;;;14.80;12.47;;;16.90;99.90;;;;;;5067656;28;20185;-73
2021/08/23 02:12:00;;;;;;;16.33;12.27;;;16.90;99.90;;;;;;5068301;28;20202;-72
2021/08/23 02:14:26;;;;;;;18.07;12.87;;;16.90;99.90;;;;;;5069345;28;20464;-72
2021/08/23 02:16:54;;;;;;;14.40;11.17;;;17.00;99.90;;;;;;5070335;28;20513;-73
2021/08/23 02:19:20;;;;;;;14.77;10.97;;;17.00;99.90;;;;;;5064554;28;20750;-73
2021/08/23 02:21:54;;;;;;;14.47;12.27;;;17.00;99.90;;;;;;5069421;28;20475;-73
2021/08/23 02:24:21;;;;;;;15.43;12.47;;;16.90;99.90;;;;;;5066925;28;20439;-72
2021/08/23 02:26:47;;;;;;;13.13;11.73;;;16.80;99.90;;;;;;5072184;28;20460;-73
2021/08/23 02:29:15;;;;;;;16.53;12.23;;;16.80;99.90;;;;;;5069545;28;20461;-73
2021/08/23 02:31:40;;;;;;;14.50;12.37;;;16.70;99.90;;;;;;5068640;28;20439;-73
2021/08/23 02:34:06;;;;;;;15.77;12.97;;;16.80;99.90;;;;;;5067910;28;20703;-73
2021/08/23 02:36:32;;;;;;;15.30;11.53;;;16.80;1.00;;;;;;5069377;28;20182;-73
2021/08/23 02:38:58;;;;;;;19.07;11.43;;;16.80;1.00;;;;;;5064708;28;20186;-73
2021/08/23 02:41:24;;;;;;;16.63;12.47;;;16.80;99.90;;;;;;5070027;28;20613;-72
2021/08/23 02:43:50;;;;;;;15.10;13.50;;;16.90;99.90;;;;;;5071649;28;20452;-73
2021/08/23 02:46:15;;;;;;;19.80;13.20;;;16.80;99.90;;;;;;5066713;28;20449;-73
2021/08/23 02:48:44;;;;;;;14.03;12.17;;;16.90;99.90;;;;;;5067813;28;20197;-73
2021/08/23 02:51:11;;;;;;;17.30;12.70;;;16.90;99.90;;;;;;5066857;28;20490;-73
2021/08/23 02:53:37;;;;;;;15.30;12.70;;;17.00;99.90;;;;;;5069397;28;20800;-73
2021/08/23 02:56:02;;;;;;;15.73;12.80;;;17.00;99.90;;;;;;5069006;28;20459;-73
2021/08/23 02:58:28;;;;;;;14.93;12.50;;;17.00;99.90;;;;;;5068332;28;20182;-72
2021/08/23 03:00:54;;;;;;;15.47;12.60;;;17.00;99.90;;;;;;5069632;28;20186;-72
2021/08/23 03:03:20;;;;;;;12.90;11.27;;;16.90;99.90;;;;;;5069457;28;20186;-72
2021/08/23 03:05:45;;;;;;;13.80;11.00;;;16.80;1.00;;;;;;5068443;28;20521;-72
2021/08/23 03:08:11;;;;;;;15.90;12.83;;;16.90;1.00;;;;;;5050863;28;21414;-73
2021/08/23 03:10:36;;;;;;;14.97;11.70;;;16.70;99.90;;;;;;5070000;28;20186;-72
2021/08/23 03:13:07;;;;;;;12.70;11.30;;;16.70;99.90;;;;;;5060985;28;20225;-72
2021/08/23 03:15:33;;;;;;;14.20;12.70;;;16.80;1.00;;;;;;5069636;28;20209;-72
2021/08/23 03:17:59;;;;;;;16.03;13.63;;;16.80;1.00;;;;;;5070698;28;20479;-72
2021/08/23 03:20:24;;;;;;;15.70;13.90;;;16.80;1.00;;;;;;5064627;28;21185;-73
2021/08/23 03:22:50;;;;;;;15.77;13.10;;;16.80;1.00;;;;;;5066954;28;20182;-73
2021/08/23 03:25:16;;;;;;;17.60;12.93;;;16.80;1.00;;;;;;5067141;28;20244;-73
2021/08/23 03:27:42;;;;;;;18.83;12.93;;;16.80;1.00;;;;;;5068949;28;20293;-72
2021/08/23 03:30:08;;;;;;;18.53;13.20;;;16.90;1.00;;;;;;5067734;28;20549;-73
2021/08/23 03:32:35;;;;;;;17.83;14.03;;;16.90;99.90;;;;;;5067432;28;20255;-73
2021/08/23 03:35:01;;;;;;;16.10;13.20;;;16.90;99.90;;;;;;5068113;28;21127;-73
2021/08/23 03:37:27;;;;;;;17.50;14.57;;;17.00;99.90;;;;;;5071444;28;20969;-72
2021/08/23 03:39:53;;;;;;;15.60;13.37;;;17.10;99.90;;;;;;5066134;28;20948;-73
2021/08/23 03:42:18;;;;;;;15.63;11.20;;;17.20;99.90;;;;;;5062095;28;20451;-73
2021/08/23 03:44:44;;;;;;;14.87;13.27;;;17.20;99.90;;;;;;5050378;28;20269;-73
2021/08/23 03:47:10;;;;;;;15.50;12.43;;;17.10;99.90;;;;;;5065627;28;20550;-72
2021/08/23 03:49:35;;;;;;;16.63;13.10;;;17.00;99.90;;;;;;5069402;28;20281;-73
2021/08/23 03:52:01;;;;;;;16.37;13.37;;;17.00;99.90;;;;;;5067950;28;20182;-72
2021/08/23 03:54:27;;;;;;;22.37;15.33;;;17.00;99.90;;;;;;5067631;28;20206;-72
2021/08/23 03:56:52;;;;;;;21.57;15.73;;;16.90;99.90;;;;;;5066847;28;20873;-74
2021/08/23 03:59:18;;;;;;;16.83;14.77;;;16.90;1.00;;;;;;5062352;28;20181;-73
2021/08/23 04:01:44;;;;;;;17.80;14.43;;;17.00;99.90;;;;;;5064073;28;20263;-73
2021/08/23 04:04:10;;;;;;;16.20;13.10;;;17.00;99.90;;;;;;5069884;28;20742;-73
2021/08/23 04:06:43;;;;;;;15.57;12.90;;;17.10;99.90;;;;;;5065893;28;20447;-73
2021/08/23 04:09:09;;;;;;;15.50;13.87;;;17.00;99.90;;;;;;5065971;28;20222;-72
2021/08/23 04:11:35;;;;;;;23.07;14.23;;;17.00;99.90;;;;;;5063445;28;20907;-73
2021/08/23 04:14:00;;;;;;;21.93;14.97;;;17.10;99.90;;;;;;5070600;28;20221;-73
2021/08/23 04:16:26;;;;;;;16.60;14.47;;;17.00;99.90;;;;;;5068676;28;20190;-73
2021/08/23 04:18:51;;;;;;;21.20;15.00;;;17.00;99.90;;;;;;5064659;28;20551;-73
2021/08/23 04:21:17;;;;;;;17.87;14.97;;;16.90;99.90;;;;;;5067136;28;20205;-73
2021/08/23 04:23:42;;;;;;;21.40;16.00;;;16.90;99.90;;;;;;5065851;28;20350;-73
2021/08/23 04:26:08;;;;;;;20.80;15.43;;;16.80;1.00;;;;;;5068735;28;20199;-72
2021/08/23 04:28:35;;;;;;;18.60;16.10;;;16.80;1.00;;;;;;5065486;28;20182;-72
2021/08/23 04:31:00;;;;;;;24.80;15.13;;;16.90;99.90;;;;;;5064220;28;20448;-72
2021/08/23 04:33:26;;;;;;;15.93;13.40;;;17.00;99.90;;;;;;5068563;28;20198;-72
2021/08/23 04:35:52;;;;;;;16.40;12.53;;;17.00;1.00;;;;;;5070050;28;20182;-72
2021/08/23 04:38:18;;;;;;;15.57;13.57;;;17.10;74.30;;;;;;5063249;28;20476;-73
2021/08/23 04:40:43;;;;;;;19.97;15.07;;;16.90;1.00;;;;;;5062580;28;20185;-72
2021/08/23 04:43:09;;;;;;;20.80;14.97;;;16.90;1.00;;;;;;5062000;28;20559;-72
2021/08/23 04:45:35;;;;;;;17.40;13.77;;;16.90;99.90;;;;;;5059590;28;20204;-72
2021/08/23 04:48:00;;;;;;;24.20;13.80;;;16.90;99.90;;;;;;5062260;28;20194;-73
2021/08/23 04:50:26;;;;;;;18.90;15.23;;;16.80;99.90;;;;;;5067507;28;20823;-73
2021/08/23 04:52:51;;;;;;;16.70;14.27;;;16.80;99.90;;;;;;5063701;28;20284;-73
2021/08/23 04:55:17;;;;;;;21.43;16.10;;;16.80;99.90;;;;;;5065426;28;20181;-73
2021/08/23 04:57:43;;;;;;;25.20;20.20;;;16.90;99.90;;;;;;5064925;28;20196;-73
2021/08/23 05:00:10;;;;;;;25.23;20.37;;;16.80;99.90;;;;;;5067389;28;20623;-73
2021/08/23 05:02:37;;;;;;;27.97;19.93;;;16.80;99.90;;;;;;5065367;28;20439;-73
2021/08/23 05:05:03;;;;;;;33.63;24.50;;;16.80;99.90;;;;;;5069572;28;21295;-73
2021/08/23 05:07:29;;;;;;;38.70;26.80;;;16.70;99.90;;;;;;5064556;28;20462;-73
2021/08/23 05:09:54;;;;;;;39.87;26.93;;;16.60;99.90;;;;;;5051854;28;20448;-73
2021/08/23 05:12:20;;;;;;;37.40;26.97;;;16.60;99.90;;;;;;5068550;28;20212;-73
2021/08/23 05:14:45;;;;;;;40.67;29.20;;;16.60;99.90;;;;;;5063447;28;21031;-72
2021/08/23 05:17:11;;;;;;;40.70;28.80;;;16.70;99.90;;;;;;5059876;28;20262;-72
2021/08/23 05:19:37;;;;;;;42.63;29.23;;;16.60;99.90;;;;;;5064942;28;20186;-72
2021/08/23 05:22:02;;;;;;;38.60;26.17;;;16.60;99.90;;;;;;5069471;28;20210;-72
2021/08/23 05:24:28;;;;;;;38.73;27.73;;;16.60;99.90;;;;;;5063221;28;20216;-73
2021/08/23 05:26:54;;;;;;;40.40;27.73;;;16.60;99.90;;;;;;5063853;28;20680;-73
2021/08/23 05:29:20;;;;;;;40.13;28.47;;;16.60;99.90;;;;;;5065082;28;20209;-72
2021/08/23 05:31:45;;;;;;;40.07;27.33;;;16.60;99.90;;;;;;5062990;28;20440;-73
2021/08/23 05:34:11;;;;;;;40.67;27.80;;;16.60;99.90;;;;;;5065480;28;20201;-72
2021/08/23 05:36:37;;;;;;;41.13;28.77;;;16.60;99.90;;;;;;5064445;28;20181;-72
2021/08/23 05:39:02;;;;;;;40.77;27.20;;;16.70;99.90;;;;;;5066320;28;20269;-72
2021/08/23 05:41:28;;;;;;;42.50;28.77;;;16.70;99.90;;;;;;5064226;28;20205;-72
2021/08/23 05:43:53;;;;;;;35.20;24.97;;;16.70;99.90;;;;;;5060870;28;20202;-72
2021/08/23 05:46:21;;;;;;;39.17;26.50;;;16.80;99.90;;;;;;5065573;28;20578;-73
2021/08/23 05:48:46;;;;;;;37.60;26.90;;;16.80;99.90;;;;;;5059455;28;20182;-73
2021/08/23 05:51:14;;;;;;;32.77;25.57;;;16.80;99.90;;;;;;5061793;28;20455;-72
2021/08/23 05:53:41;;;;;;;38.43;28.33;;;16.80;99.90;;;;;;5063218;28;20284;-73
2021/08/23 05:56:07;;;;;;;37.23;26.10;;;16.80;99.90;;;;;;5068141;28;20452;-73
2021/08/23 05:58:32;;;;;;;35.20;27.30;;;16.90;99.90;;;;;;5065736;28;20436;-72
2021/08/23 06:00:58;;;;;;;37.80;25.93;;;16.90;99.90;;;;;;5074997;28;20181;-72
2021/08/23 06:03:24;;;;;;;33.70;25.87;;;16.80;99.90;;;;;;5071152;28;20201;-72
2021/08/23 06:05:49;;;;;;;38.87;27.60;;;16.80;99.90;;;;;;5073925;28;20182;-72
2021/08/23 06:08:15;;;;;;;37.20;26.23;;;16.80;99.90;;;;;;5072363;28;20293;-73
2021/08/23 06:10:41;;;;;;;37.40;26.03;;;16.80;99.90;;;;;;5068026;28;20214;-73
2021/08/23 06:13:07;;;;;;;32.23;23.37;;;16.70;99.90;;;;;;5068706;28;20467;-73
2021/08/23 06:15:33;;;;;;;36.03;26.10;;;16.70;99.90;;;;;;5069831;28;20448;-73
2021/08/23 06:17:58;;;;;;;31.80;24.30;;;16.70;99.90;;;;;;5073623;28;25130;-73
2021/08/23 06:20:24;;;;;;;36.90;24.63;;;16.70;99.90;;;;;;5068777;28;20222;-73
2021/08/23 06:22:51;;;;;;;36.10;25.80;;;16.70;99.90;;;;;;5072510;28;20197;-74
2021/08/23 06:25:17;;;;;;;32.20;24.10;;;16.70;99.90;;;;;;5068776;28;20460;-73
2021/08/23 06:27:43;;;;;;;29.63;22.20;;;16.70;99.90;;;;;;5075829;28;20997;-73
2021/08/23 06:30:09;;;;;;;30.83;23.23;;;16.60;99.90;;;;;;5072809;28;20456;-73
2021/08/23 06:32:35;;;;;;;30.67;22.80;;;16.70;99.90;;;;;;5070641;28;20193;-73
2021/08/23 06:35:03;;;;;;;30.17;22.67;;;16.70;99.90;;;;;;5069946;28;20491;-73
2021/08/23 06:37:30;;;;;;;31.90;23.37;;;16.70;99.90;;;;;;5072180;28;20563;-73
2021/08/23 06:39:58;;;;;;;32.37;23.97;;;16.70;99.90;;;;;;5067019;28;20436;-73
2021/08/23 06:42:24;;;;;;;32.40;24.20;;;16.80;99.90;;;;;;5067097;28;20540;-74
2021/08/23 06:44:50;;;;;;;36.67;24.57;;;16.70;99.90;;;;;;5070300;28;20866;-73
2021/08/23 06:47:16;;;;;;;37.23;27.07;;;16.70;99.90;;;;;;5059864;28;20308;-73
2021/08/23 06:49:43;;;;;;;40.30;26.50;;;16.80;99.90;;;;;;5062599;28;20186;-73
2021/08/23 06:52:08;;;;;;;39.63;26.00;;;16.80;99.90;;;;;;5064726;28;20574;-73
2021/08/23 06:54:34;;;;;;;35.30;25.17;;;16.70;99.90;;;;;;5069578;28;21144;-72
2021/08/23 06:57:01;;;;;;;36.40;24.50;;;16.70;99.90;;;;;;5068386;28;20252;-73
2021/08/23 06:59:28;;;;;;;31.40;20.63;;;16.70;99.90;;;;;;5072456;28;20217;-72
2021/08/23 07:01:54;;;;;;;32.63;22.30;;;16.70;99.90;;;;;;5071282;28;20445;-72
2021/08/23 07:04:19;;;;;;;28.97;21.37;;;16.70;99.90;;;;;;5072883;28;20903;-72
2021/08/23 07:06:46;;;;;;;30.50;23.10;;;16.70;99.90;;;;;;5068467;28;21048;-72
2021/08/23 07:09:12;;;;;;;28.77;21.40;;;16.70;99.90;;;;;;5073918;28;20196;-72
2021/08/23 07:11:38;;;;;;;24.20;19.57;;;16.70;99.90;;;;;;5063054;28;20475;-72
2021/08/23 07:14:03;;;;;;;28.00;19.80;;;16.80;99.90;;;;;;5076523;28;20460;-71
2021/08/23 07:16:29;;;;;;;28.23;19.50;;;16.80;99.90;;;;;;5074147;28;20282;-72
2021/08/23 07:18:55;;;;;;;28.47;19.30;;;16.70;99.90;;;;;;5065654;28;20209;-72
2021/08/23 07:21:21;;;;;;;24.03;18.03;;;16.70;99.90;;;;;;5066915;28;20185;-73
2021/08/23 07:23:46;;;;;;;23.57;17.37;;;16.60;99.90;;;;;;5069621;28;20754;-72
2021/08/23 07:26:12;;;;;;;20.90;16.20;;;16.70;99.90;;;;;;5049166;28;20524;-72
2021/08/23 07:28:38;;;;;;;24.90;19.00;;;16.60;99.90;;;;;;5071825;28;20235;-73
2021/08/23 07:31:04;;;;;;;16.70;13.00;;;16.60;99.90;;;;;;5069022;28;20194;-73
2021/08/23 07:33:29;;;;;;;18.50;14.50;;;16.60;99.90;;;;;;5068515;28;20217;-72
2021/08/23 07:35:55;;;;;;;15.80;12.90;;;16.60;99.90;;;;;;5069496;28;20189;-72
2021/08/23 07:38:21;;;;;;;17.60;15.00;;;16.50;99.90;;;;;;5063042;28;20180;-73
2021/08/23 07:40:47;;;;;;;17.17;14.30;;;16.40;99.90;;;;;;5068708;28;20530;-72
2021/08/23 07:43:13;;;;;;;19.83;14.87;;;16.40;99.90;;;;;;5067888;28;20938;-72
2021/08/23 07:45:38;;;;;;;24.30;17.03;;;16.30;99.90;;;;;;5066421;28;20194;-72
2021/08/23 07:48:04;;;;;;;23.47;17.30;;;16.30;99.90;;;;;;5066523;28;20194;-73
2021/08/23 07:50:30;;;;;;;21.73;17.43;;;16.30;99.90;;;;;;5062277;28;20185;-72
2021/08/23 07:52:56;;;;;;;25.70;19.90;;;16.40;99.90;;;;;;5065930;28;20809;-73
2021/08/23 07:55:22;;;;;;;22.17;17.27;;;16.40;99.90;;;;;;5069007;28;20243;-73
2021/08/23 07:57:49;;;;;;;21.03;18.07;;;16.40;99.90;;;;;;5065564;28;20997;-73
2021/08/23 08:00:17;;;;;;;22.50;18.20;;;16.30;99.90;;;;;;5067292;28;20205;-73
2021/08/23 08:02:43;;;;;;;22.87;19.00;;;16.40;99.90;;;;;;5067469;28;20442;-72
2021/08/23 08:05:12;;;;;;;21.00;17.50;;;16.30;99.90;;;;;;5065409;28;20440;-72
2021/08/23 08:07:38;;;;;;;22.30;17.40;;;16.30;99.90;;;;;;5064217;28;20494;-72
2021/08/23 08:10:08;;;;;;;21.87;18.97;;;16.30;99.90;;;;;;5072504;28;20447;-72
2021/08/23 08:12:34;;;;;;;21.27;17.03;;;16.20;99.90;;;;;;5072244;28;20466;-73
2021/08/23 08:15:01;;;;;;;22.70;17.53;;;16.20;99.90;;;;;;5068386;28;20847;-72
2021/08/23 08:17:26;;;;;;;24.00;17.73;;;16.20;99.90;;;;;;5068944;28;21756;-72
2021/08/23 08:19:53;;;;;;;21.47;17.53;;;16.30;99.90;;;;;;5064104;28;20449;-72
2021/08/23 08:22:19;;;;;;;20.73;18.27;;;16.30;99.90;;;;;;5070272;28;20626;-72
2021/08/23 08:24:45;;;;;;;24.53;19.10;;;16.30;99.90;;;;;;5063948;28;21292;-72
2021/08/23 08:27:11;;;;;;;22.73;19.10;;;16.40;99.90;;;;;;5064996;28;20493;-72
2021/08/23 08:29:38;;;;;;;29.60;21.07;;;16.40;99.90;;;;;;5066570;28;20812;-73
2021/08/23 08:32:05;;;;;;;28.07;21.70;;;16.50;99.90;;;;;;5061710;28;20194;-72
2021/08/23 08:34:31;;;;;;;25.17;20.17;;;16.60;99.90;;;;;;5060507;28;20468;-73
2021/08/23 08:36:57;;;;;;;25.63;21.60;;;16.60;99.90;;;;;;5062144;28;20581;-72
2021/08/23 08:39:22;;;;;;;22.70;17.80;;;16.50;99.90;;;;;;5058051;28;20440;-73
2021/08/23 08:41:48;;;;;;;24.77;19.50;;;16.60;99.90;;;;;;5059651;28;20201;-73
2021/08/23 08:44:14;;;;;;;24.97;19.90;;;16.60;99.90;;;;;;5063297;28;20180;-73
2021/08/23 08:46:41;;;;;;;24.87;20.40;;;16.60;99.90;;;;;;5068357;28;20178;-73
2021/08/23 08:49:11;;;;;;;23.20;18.57;;;16.70;99.90;;;;;;5066613;28;20197;-73
2021/08/23 08:51:38;;;;;;;26.50;18.80;;;16.70;99.90;;;;;;5072598;28;20440;-73
2021/08/23 08:54:05;;;;;;;21.37;17.80;;;16.60;99.90;;;;;;5067342;28;20511;-72
2021/08/23 08:56:34;;;;;;;21.37;17.10;;;16.50;99.90;;;;;;5074369;28;20509;-72
2021/08/23 08:59:01;;;;;;;23.83;17.40;;;16.60;99.90;;;;;;5072977;28;20439;-73
2021/08/23 09:01:27;;;;;;;24.87;18.43;;;16.50;99.90;;;;;;5069280;28;20980;-72
2021/08/23 09:03:59;;;;;;;20.70;17.87;;;16.50;99.90;;;;;;5074820;28;20444;-73
2021/08/23 09:06:25;;;;;;;24.00;18.33;;;16.50;99.90;;;;;;5073327;28;20178;-73
2021/08/23 09:08:50;;;;;;;27.03;19.17;;;16.60;99.90;;;;;;5064024;28;21106;-73
2021/08/23 09:11:18;;;;;;;21.40;18.30;;;16.70;99.90;;;;;;5067644;28;20182;-73
2021/08/23 09:13:59;;;;;;;24.27;18.17;;;16.70;99.90;;;;;;5067955;28;20474;-73
2021/08/23 09:16:30;;;;;;;21.33;17.37;;;16.80;99.90;;;;;;5050670;28;20809;-72
2021/08/23 09:18:57;;;;;;;22.90;19.03;;;16.80;99.90;;;;;;5076328;28;20462;-73
2021/08/23 09:21:40;;;;;;;24.00;19.83;;;16.70;99.90;;;;;;5077259;28;20535;-73
2021/08/23 09:24:17;;;;;;;22.33;18.50;;;16.80;99.90;;;;;;5075713;28;20450;-73
2021/08/23 09:26:43;;;;;;;25.50;17.70;;;16.80;99.90;;;;;;5076646;28;20671;-73
2021/08/23 09:29:09;;;;;;;24.40;18.67;;;16.80;99.90;;;;;;5074560;28;20491;-73
2021/08/23 09:31:38;;;;;;;22.90;18.30;;;16.80;99.90;;;;;;5058330;28;21146;-73
2021/08/23 09:34:06;;;;;;;27.00;19.87;;;16.80;99.90;;;;;;5076659;28;20217;-73
2021/08/23 09:36:32;;;;;;;25.70;21.27;;;16.80;99.90;;;;;;5076428;28;20440;-73
2021/08/23 09:39:03;;;;;;;28.27;20.30;;;16.90;99.90;;;;;;5059416;28;20478;-74
2021/08/23 09:41:31;;;;;;;27.53;22.47;;;16.90;99.90;;;;;;5072819;28;20205;-73
2021/08/23 09:44:06;;;;;;;26.60;20.17;;;16.90;99.90;;;;;;5069860;28;20465;-73
2021/08/23 09:46:33;;;;;;;27.90;20.80;;;16.90;99.90;;;;;;5069851;28;20453;-73
2021/08/23 09:49:02;;;;;;;25.57;21.37;;;16.90;99.90;;;;;;5070879;28;20456;-73
2021/08/23 09:51:47;;;;;;;26.63;19.80;;;16.80;99.90;;;;;;5055862;28;20452;-73
2021/08/23 09:54:19;;;;;;;26.57;20.60;;;16.90;99.90;;;;;;5071626;28;20475;-73
2021/08/23 09:56:53;;;;;;;25.97;20.07;;;17.00;99.90;;;;;;5072433;28;20517;-73
2021/08/23 09:59:21;;;;;;;24.60;19.97;;;17.20;99.90;;;;;;5069950;28;21048;-73
2021/08/23 10:01:49;;;;;;;27.00;19.60;;;17.30;99.90;;;;;;5068454;28;21002;-72
2021/08/23 10:04:15;;;;;;;29.90;22.93;;;17.50;99.90;;;;;;5075488;28;20503;-73
2021/08/23 10:06:43;;;;;;;26.10;20.07;;;17.80;99.90;;;;;;5066589;28;20874;-73
2021/08/23 10:09:10;;;;;;;29.53;20.50;;;17.90;99.90;;;;;;5062907;28;20536;-73
2021/08/23 10:11:38;;;;;;;22.40;18.70;;;18.00;99.90;;;;;;5066065;28;20425;-72
2021/08/23 10:14:05;;;;;;;30.50;20.43;;;17.80;99.90;;;;;;5063963;28;20490;-73
2021/08/23 10:16:32;;;;;;;24.23;20.40;;;17.70;99.90;;;;;;5059088;28;20432;-72
2021/08/23 10:18:58;;;;;;;34.53;21.17;;;17.70;99.90;;;;;;5063284;28;20478;-73
2021/08/23 10:21:25;;;;;;;27.57;20.47;;;17.50;99.90;;;;;;5066229;28;20450;-73
2021/08/23 10:23:53;;;;;;;26.63;20.13;;;17.40;99.90;;;;;;5054222;28;20471;-72
2021/08/23 10:26:19;;;;;;;27.43;20.87;;;17.40;99.90;;;;;;5061286;28;20841;-72
2021/08/23 10:28:48;;;;;;;27.93;22.20;;;17.40;99.90;;;;;;5065715;28;20472;-72
2021/08/23 10:31:16;;;;;;;30.37;21.37;;;17.40;99.90;;;;;;5063070;28;20447;-72
2021/08/23 10:33:43;;;;;;;26.03;20.67;;;17.50;99.90;;;;;;5063152;28;21213;-72
2021/08/23 10:36:12;;;;;;;28.73;22.63;;;17.60;99.90;;;;;;5063292;28;20866;-72
2021/08/23 10:38:40;;;;;;;31.83;22.33;;;17.60;99.90;;;;;;5066108;28;20482;-72
2021/08/23 10:41:11;;;;;;;25.07;21.27;;;17.70;99.90;;;;;;5070380;28;20450;-73
2021/08/23 10:43:50;;;;;;;27.50;22.00;;;17.80;99.90;;;;;;5065766;28;20466;-72
2021/08/23 10:46:29;;;;;;;28.80;23.73;;;18.10;99.90;;;;;;5065496;28;20446;-72
2021/08/23 10:48:58;;;;;;;28.87;22.27;;;18.20;99.90;;;;;;5061205;28;20454;-73
2021/08/23 10:51:33;;;;;;;26.90;21.00;;;18.30;99.90;;;;;;5055169;28;21136;-72
2021/08/23 10:54:00;;;;;;;25.60;21.50;;;18.20;99.90;;;;;;5066033;28;20479;-72
2021/08/23 10:56:39;;;;;;;27.13;19.60;;;18.30;99.90;;;;;;5059781;28;20455;-72
2021/08/23 10:59:16;;;;;;;27.50;21.47;;;18.20;99.90;;;;;;5061313;28;20463;-73
2021/08/23 11:01:58;;;;;;;25.27;19.80;;;18.20;99.90;;;;;;5060610;28;20478;-72
2021/08/23 11:04:37;;;;;;;23.70;21.03;;;18.30;99.90;;;;;;5062254;28;20479;-73
2021/08/23 11:07:04;;;;;;;23.83;19.20;;;18.30;99.90;;;;;;5062580;28;20447;-72
2021/08/23 11:09:35;;;;;;;21.93;19.33;;;18.30;99.90;;;;;;5060639;28;20471;-72
2021/08/23 11:12:10;;;;;;;20.37;18.20;;;18.30;99.90;;;;;;5050688;28;21080;-71
2021/08/23 11:14:50;;;;;;;20.87;17.73;;;18.30;99.90;;;;;;5061453;28;20482;-72
2021/08/23 11:17:30;;;;;;;20.30;17.63;;;18.30;99.90;;;;;;5064477;28;20615;-72
2021/08/23 11:19:57;;;;;;;24.67;19.53;;;18.30;99.90;;;;;;5063499;28;20832;-72
2021/08/23 11:22:24;;;;;;;21.23;17.97;;;18.30;99.90;;;;;;5050681;28;22045;-72
2021/08/23 11:24:49;;;;;;;23.93;19.10;;;18.40;99.90;;;;;;5064033;28;20457;-72
2021/08/23 11:27:15;;;;;;;22.03;19.20;;;18.40;99.90;;;;;;5065399;28;20459;-72
2021/08/23 11:29:53;;;;;;;27.07;20.20;;;18.60;99.90;;;;;;5060048;28;20246;-72
2021/08/23 11:32:23;;;;;;;22.77;19.10;;;18.60;99.90;;;;;;5065364;28;20451;-72
2021/08/23 11:34:50;;;;;;;24.37;21.00;;;18.60;99.90;;;;;;5067217;28;20553;-71
2021/08/23 11:37:20;;;;;;;23.77;21.00;;;18.50;99.90;;;;;;5068109;28;20469;-72
2021/08/23 11:39:46;;;;;;;23.97;20.23;;;18.50;99.90;;;;;;5063112;28;20483;-72
2021/08/23 11:42:12;;;;;;;24.10;20.33;;;18.50;99.90;;;;;;5064693;28;20582;-72
2021/08/23 11:44:38;;;;;;;23.27;18.90;;;18.40;99.90;;;;;;5070234;28;20805;-72
2021/08/23 11:47:06;;;;;;;20.73;18.53;;;18.40;99.90;;;;;;5063681;28;20239;-72
2021/08/23 11:49:34;;;;;;;23.60;19.10;;;18.40;99.90;;;;;;5070172;28;20305;-72
2021/08/23 11:52:14;;;;;;;21.33;17.30;;;18.40;99.90;;;;;;5068804;28;20801;-72
2021/08/23 11:54:45;;;;;;;22.30;18.87;;;18.40;99.90;;;;;;5070761;28;20535;-72
2021/08/23 11:57:11;;;;;;;22.87;18.03;;;18.40;99.90;;;;;;5068454;28;20463;-72
2021/08/23 11:59:36;;;;;;;23.00;16.70;;;18.50;99.90;;;;;;5063725;28;20453;-72
2021/08/23 12:02:10;;;;;;;21.67;17.70;;;18.50;99.90;;;;;;5056483;28;20182;-73
2021/08/23 12:04:36;;;;;;;21.33;17.20;;;18.50;99.90;;;;;;5061026;28;20191;-72
2021/08/23 12:07:02;;;;;;;19.63;17.37;;;18.60;99.90;;;;;;5066230;28;20861;-73
2021/08/23 12:09:28;;;;;;;19.07;17.10;;;18.60;99.90;;;;;;5059725;28;20468;-72
2021/08/23 12:11:54;;;;;;;18.80;15.90;;;18.70;99.90;;;;;;5063700;28;20197;-72
2021/08/23 12:14:22;;;;;;;17.07;15.10;;;18.70;99.90;;;;;;5067001;28;20517;-71
2021/08/23 12:16:48;;;;;;;17.90;14.93;;;18.60;99.90;;;;;;5061330;28;20190;-71
2021/08/23 12:19:15;;;;;;;18.23;14.47;;;18.60;99.90;;;;;;5068753;28;20443;-71
2021/08/23 12:21:43;;;;;;;18.90;13.57;;;18.60;99.90;;;;;;5058319;28;20444;-72
2021/08/23 12:24:14;;;;;;;18.90;15.60;;;18.60;50.20;;;;;;5059172;28;20447;-72
2021/08/23 12:26:55;;;;;;;17.40;15.33;;;18.60;1.00;;;;;;5060421;28;20539;-72
2021/08/23 12:29:34;;;;;;;25.03;15.10;;;18.80;1.00;;;;;;5057371;28;20484;-72